sensor_id;sensor_type;location;lat;lon;timestamp;pressure;altitude;pressure_sealevel;temperature;humidity
28606;BME280;46498;49.968;7.754;2023-02-19T00:01:40;97414.00;;;8.00;100.00
28606;BME280;46498;49.968;7.754;2023-02-19T00:06:42;97396.00;;;7.97;100.00
28606;BME280;46498;49.968;7.754;2023-02-19T00:11:44;97399.00;;;7.92;100.00
28606;BME280;46498;49.968;7.754;2023-02-19T00:16:46;97397.00;;;7.91;100.00
28606;BME280;46498;49.968;7.754;2023-02-19T00:21:49;97415.00;;;7.95;100.00
28606;BME280;46498;49.968;7.754;2023-02-19T00:26:50;97425.00;;;7.94;100.00
28606;BME280;46498;49.968;7.754;2023-02-19T00:31:51;97424.00;;;8.00;100.00
28606;BME280;46498;49.968;7.754;2023-02-19T00:36:52;97428.00;;;8.00;100.00
28606;BME280;46498;49.968;7.754;2023-02-19T00:41:53;97389.00;;;8.03;100.00
28606;BME280;46498;49.968;7.754;2023-02-19T00:46:54;97387.00;;;7.95;100.00
28606;BME280;46498;49.968;7.754;2023-02-19T00:51:55;97412.00;;;7.90;100.00
28606;BME280;46498;49.968;7.754;2023-02-19T00:56:56;97401.00;;;7.86;100.00
28606;BME280;46498;49.968;7.754;2023-02-19T01:01:57;97392.00;;;7.91;100.00
28606;BME280;46498;49.968;7.754;2023-02-19T01:06:57;97392.00;;;7.91;100.00
28606;BME280;46498;49.968;7.754;2023-02-19T01:11:58;97399.00;;;7.93;100.00
28606;BME280;46498;49.968;7.754;2023-02-19T01:16:59;97394.00;;;7.95;100.00
28606;BME280;46498;49.968;7.754;2023-02-19T01:22:00;97380.00;;;7.95;100.00
28606;BME280;46498;49.968;7.754;2023-02-19T01:27:03;97389.00;;;7.96;100.00
28606;BME280;46498;49.968;7.754;2023-02-19T01:32:04;97373.00;;;7.94;100.00
28606;BME280;46498;49.968;7.754;2023-02-19T01:37:05;97386.00;;;7.85;100.00
28606;BME280;46498;49.968;7.754;2023-02-19T01:42:14;97384.00;;;7.82;100.00
28606;BME280;46498;49.968;7.754;2023-02-19T01:47:17;97366.00;;;7.69;100.00
28606;BME280;46498;49.968;7.754;2023-02-19T01:52:31;97361.00;;;7.70;100.00
28606;BME280;46498;49.968;7.754;2023-02-19T01:57:38;97350.00;;;7.69;100.00
28606;BME280;46498;49.968;7.754;2023-02-19T02:02:44;97355.00;;;7.65;100.00
28606;BME280;46498;49.968;7.754;2023-02-19T02:07:46;97346.00;;;7.63;100.00
28606;BME280;46498;49.968;7.754;2023-02-19T02:13:06;97342.00;;;7.64;100.00
28606;BME280;46498;49.968;7.754;2023-02-19T02:19:05;97333.00;;;7.55;100.00
28606;BME280;46498;49.968;7.754;2023-02-19T02:24:47;97333.00;;;7.48;100.00
28606;BME280;46498;49.968;7.754;2023-02-19T02:30:55;97332.00;;;7.54;100.00
28606;BME280;46498;49.968;7.754;2023-02-19T02:36:04;97322.00;;;7.58;100.00
28606;BME280;46498;49.968;7.754;2023-02-19T02:41:07;97321.00;;;7.59;100.00
28606;BME280;46498;49.968;7.754;2023-02-19T02:46:12;97316.00;;;7.66;100.00
28606;BME280;46498;49.968;7.754;2023-02-19T02:51:36;97314.00;;;7.67;100.00
28606;BME280;46498;49.968;7.754;2023-02-19T02:56:47;97314.00;;;7.71;100.00
28606;BME280;46498;49.968;7.754;2023-02-19T03:01:53;97317.00;;;7.58;100.00
28606;BME280;46498;49.968;7.754;2023-02-19T03:07:34;97319.00;;;7.49;100.00
28606;BME280;46498;49.968;7.754;2023-02-19T03:12:38;97314.00;;;7.41;100.00
28606;BME280;46498;49.968;7.754;2023-02-19T03:18:02;97322.00;;;7.29;100.00
28606;BME280;46498;49.968;7.754;2023-02-19T03:23:26;97339.00;;;7.33;100.00
28606;BME280;46498;49.968;7.754;2023-02-19T03:31:18;97334.00;;;7.40;100.00
28606;BME280;46498;49.968;7.754;2023-02-19T03:36:22;97330.00;;;7.32;100.00
28606;BME280;46498;49.968;7.754;2023-02-19T03:42:06;97336.00;;;7.27;100.00
28606;BME280;46498;49.968;7.754;2023-02-19T03:47:32;97343.00;;;7.32;100.00
28606;BME280;46498;49.968;7.754;2023-02-19T03:58:28;97336.00;;;7.36;100.00
28606;BME280;46498;49.968;7.754;2023-02-19T04:03:45;97330.00;;;7.35;100.00
28606;BME280;46498;49.968;7.754;2023-02-19T04:08:51;97332.00;;;7.30;100.00
28606;BME280;46498;49.968;7.754;2023-02-19T04:14:10;97336.00;;;7.29;100.00
28606;BME280;46498;49.968;7.754;2023-02-19T04:19:18;97330.00;;;7.25;100.00
28606;BME280;46498;49.968;7.754;2023-02-19T04:24:28;97345.00;;;7.26;100.00
28606;BME280;46498;49.968;7.754;2023-02-19T04:29:30;97345.00;;;7.33;100.00
28606;BME280;46498;49.968;7.754;2023-02-19T04:34:31;97351.00;;;7.35;100.00
28606;BME280;46498;49.968;7.754;2023-02-19T04:39:32;97360.00;;;7.36;100.00
28606;BME280;46498;49.968;7.754;2023-02-19T04:44:33;97365.00;;;7.37;100.00
28606;BME280;46498;49.968;7.754;2023-02-19T04:49:34;97370.00;;;7.41;100.00
28606;BME280;46498;49.968;7.754;2023-02-19T04:54:34;97376.00;;;7.43;100.00
28606;BME280;46498;49.968;7.754;2023-02-19T04:59:35;97380.00;;;7.38;100.00
28606;BME280;46498;49.968;7.754;2023-02-19T05:04:36;97369.00;;;7.43;100.00
28606;BME280;46498;49.968;7.754;2023-02-19T05:09:37;97379.00;;;7.27;100.00
28606;BME280;46498;49.968;7.754;2023-02-19T05:14:38;97380.00;;;7.23;100.00
28606;BME280;46498;49.968;7.754;2023-02-19T05:19:38;97400.00;;;7.21;100.00
28606;BME280;46498;49.968;7.754;2023-02-19T05:24:39;97392.00;;;7.25;100.00
28606;BME280;46498;49.968;7.754;2023-02-19T05:29:40;97391.00;;;7.21;100.00
28606;BME280;46498;49.968;7.754;2023-02-19T05:34:41;97394.00;;;7.23;100.00
28606;BME280;46498;49.968;7.754;2023-02-19T05:39:42;97400.00;;;7.20;100.00
28606;BME280;46498;49.968;7.754;2023-02-19T05:44:42;97392.00;;;7.15;100.00
28606;BME280;46498;49.968;7.754;2023-02-19T05:49:44;97414.00;;;7.20;100.00
28606;BME280;46498;49.968;7.754;2023-02-19T05:54:44;97428.00;;;7.22;100.00
28606;BME280;46498;49.968;7.754;2023-02-19T05:59:45;97428.00;;;7.17;100.00
28606;BME280;46498;49.968;7.754;2023-02-19T06:04:46;97424.00;;;7.13;100.00
28606;BME280;46498;49.968;7.754;2023-02-19T06:09:49;97441.00;;;7.15;100.00
28606;BME280;46498;49.968;7.754;2023-02-19T06:14:50;97451.00;;;7.00;100.00
28606;BME280;46498;49.968;7.754;2023-02-19T06:19:51;97454.00;;;6.97;100.00
28606;BME280;46498;49.968;7.754;2023-02-19T06:24:51;97465.00;;;7.00;100.00
28606;BME280;46498;49.968;7.754;2023-02-19T06:29:52;97466.00;;;6.91;100.00
28606;BME280;46498;49.968;7.754;2023-02-19T06:34:53;97470.00;;;6.90;100.00
28606;BME280;46498;49.968;7.754;2023-02-19T06:39:54;97464.00;;;6.88;100.00
28606;BME280;46498;49.968;7.754;2023-02-19T06:44:55;97469.00;;;6.86;100.00
28606;BME280;46498;49.968;7.754;2023-02-19T06:49:56;97463.00;;;6.89;100.00
28606;BME280;46498;49.968;7.754;2023-02-19T06:54:56;97485.00;;;6.86;100.00
28606;BME280;46498;49.968;7.754;2023-02-19T06:59:57;97485.00;;;6.91;100.00
28606;BME280;46498;49.968;7.754;2023-02-19T07:04:58;97505.00;;;6.97;100.00
28606;BME280;46498;49.968;7.754;2023-02-19T07:09:59;97518.00;;;6.98;100.00
28606;BME280;46498;49.968;7.754;2023-02-19T07:15:00;97517.00;;;7.01;100.00
28606;BME280;46498;49.968;7.754;2023-02-19T07:20:00;97526.00;;;6.93;100.00
28606;BME280;46498;49.968;7.754;2023-02-19T07:25:01;97514.00;;;6.87;100.00
28606;BME280;46498;49.968;7.754;2023-02-19T07:30:03;97514.00;;;6.87;100.00
28606;BME280;46498;49.968;7.754;2023-02-19T07:35:04;97537.00;;;6.91;100.00
28606;BME280;46498;49.968;7.754;2023-02-19T07:40:06;97549.00;;;6.89;100.00
28606;BME280;46498;49.968;7.754;2023-02-19T07:45:07;97571.00;;;6.92;100.00
28606;BME280;46498;49.968;7.754;2023-02-19T07:50:08;97580.00;;;7.03;100.00
28606;BME280;46498;49.968;7.754;2023-02-19T07:55:09;97594.00;;;7.02;100.00
28606;BME280;46498;49.968;7.754;2023-02-19T08:00:10;97597.00;;;7.07;100.00
28606;BME280;46498;49.968;7.754;2023-02-19T08:05:14;97600.00;;;7.11;100.00
28606;BME280;46498;49.968;7.754;2023-02-19T08:10:15;97608.00;;;7.18;100.00
28606;BME280;46498;49.968;7.754;2023-02-19T08:15:34;97616.00;;;7.26;100.00
28606;BME280;46498;49.968;7.754;2023-02-19T08:20:35;97617.00;;;7.27;100.00
28606;BME280;46498;49.968;7.754;2023-02-19T08:25:36;97604.00;;;7.41;100.00
28606;BME280;46498;49.968;7.754;2023-02-19T08:30:39;97594.00;;;7.47;100.00
28606;BME280;46498;49.968;7.754;2023-02-19T08:35:41;97599.00;;;7.48;100.00
28606;BME280;46498;49.968;7.754;2023-02-19T08:40:42;97614.00;;;7.57;100.00
28606;BME280;46498;49.968;7.754;2023-02-19T08:45:44;97619.00;;;7.71;100.00
28606;BME280;46498;49.968;7.754;2023-02-19T08:50:53;97622.00;;;7.84;100.00
28606;BME280;46498;49.968;7.754;2023-02-19T08:55:54;97635.00;;;7.88;100.00
28606;BME280;46498;49.968;7.754;2023-02-19T09:00:55;97652.00;;;7.90;100.00
28606;BME280;46498;49.968;7.754;2023-02-19T09:05:56;97633.00;;;7.87;100.00
28606;BME280;46498;49.968;7.754;2023-02-19T09:11:02;97657.00;;;7.97;100.00
28606;BME280;46498;49.968;7.754;2023-02-19T09:16:04;97667.00;;;8.02;100.00
28606;BME280;46498;49.968;7.754;2023-02-19T09:21:06;97674.00;;;8.17;100.00
28606;BME280;46498;49.968;7.754;2023-02-19T09:26:06;97690.00;;;8.34;100.00
28606;BME280;46498;49.968;7.754;2023-02-19T09:31:11;97697.00;;;8.59;100.00
28606;BME280;46498;49.968;7.754;2023-02-19T09:36:15;97699.00;;;8.74;100.00
28606;BME280;46498;49.968;7.754;2023-02-19T09:41:44;97705.00;;;8.52;100.00
28606;BME280;46498;49.968;7.754;2023-02-19T09:46:48;97698.00;;;8.53;100.00
28606;BME280;46498;49.968;7.754;2023-02-19T09:51:58;97707.00;;;8.55;100.00
28606;BME280;46498;49.968;7.754;2023-02-19T09:57:03;97711.00;;;8.40;100.00
28606;BME280;46498;49.968;7.754;2023-02-19T10:02:15;97705.00;;;8.45;100.00
28606;BME280;46498;49.968;7.754;2023-02-19T10:07:32;97721.00;;;8.52;100.00
28606;BME280;46498;49.968;7.754;2023-02-19T10:12:34;97729.00;;;8.86;100.00
28606;BME280;46498;49.968;7.754;2023-02-19T10:17:35;97727.00;;;9.03;100.00
28606;BME280;46498;49.968;7.754;2023-02-19T10:22:37;97726.00;;;8.74;100.00
28606;BME280;46498;49.968;7.754;2023-02-19T10:27:37;97723.00;;;8.41;100.00
28606;BME280;46498;49.968;7.754;2023-02-19T10:33:17;97740.00;;;8.31;100.00
28606;BME280;46498;49.968;7.754;2023-02-19T10:38:21;97747.00;;;8.31;100.00
28606;BME280;46498;49.968;7.754;2023-02-19T10:43:27;97770.00;;;8.33;100.00
28606;BME280;46498;49.968;7.754;2023-02-19T10:48:37;97782.00;;;8.51;100.00
28606;BME280;46498;49.968;7.754;2023-02-19T10:53:45;97791.00;;;8.74;100.00
28606;BME280;46498;49.968;7.754;2023-02-19T10:58:47;97808.00;;;8.64;100.00
28606;BME280;46498;49.968;7.754;2023-02-19T11:03:50;97818.00;;;8.72;100.00
28606;BME280;46498;49.968;7.754;2023-02-19T11:08:58;97816.00;;;8.55;100.00
28606;BME280;46498;49.968;7.754;2023-02-19T11:14:19;97805.00;;;8.60;100.00
28606;BME280;46498;49.968;7.754;2023-02-19T11:19:57;97796.00;;;8.77;100.00
28606;BME280;46498;49.968;7.754;2023-02-19T11:25:06;97781.00;;;8.95;100.00
28606;BME280;46498;49.968;7.754;2023-02-19T11:30:42;97789.00;;;9.49;99.61
28606;BME280;46498;49.968;7.754;2023-02-19T11:35:45;97794.00;;;10.32;93.23
28606;BME280;46498;49.968;7.754;2023-02-19T11:41:07;97799.00;;;10.21;92.34
28606;BME280;46498;49.968;7.754;2023-02-19T11:52:10;97814.00;;;9.83;94.88
28606;BME280;46498;49.968;7.754;2023-02-19T11:57:45;97825.00;;;9.65;93.20
28606;BME280;46498;49.968;7.754;2023-02-19T12:08:56;97833.00;;;9.46;94.47
28606;BME280;46498;49.968;7.754;2023-02-19T12:24:43;97823.00;;;9.11;97.04
28606;BME280;46498;49.968;7.754;2023-02-19T12:37:11;97799.00;;;9.28;93.84
28606;BME280;46498;49.968;7.754;2023-02-19T12:42:31;97807.00;;;9.27;95.51
28606;BME280;46498;49.968;7.754;2023-02-19T12:47:40;97816.00;;;9.28;94.58
28606;BME280;46498;49.968;7.754;2023-02-19T12:52:48;97822.00;;;9.25;94.54
28606;BME280;46498;49.968;7.754;2023-02-19T12:57:50;97813.00;;;9.41;98.09
28606;BME280;46498;49.968;7.754;2023-02-19T13:11:43;97797.00;;;9.50;94.23
28606;BME280;46498;49.968;7.754;2023-02-19T13:16:53;97808.00;;;9.78;92.72
28606;BME280;46498;49.968;7.754;2023-02-19T13:22:19;97806.00;;;9.79;93.17
28606;BME280;46498;49.968;7.754;2023-02-19T13:28:12;97782.00;;;9.72;95.55
28606;BME280;46498;49.968;7.754;2023-02-19T13:33:31;97791.00;;;9.48;93.74
28606;BME280;46498;49.968;7.754;2023-02-19T13:38:39;97781.00;;;9.30;94.29
28606;BME280;46498;49.968;7.754;2023-02-19T13:43:40;97789.00;;;9.49;95.04
28606;BME280;46498;49.968;7.754;2023-02-19T13:48:42;97799.00;;;9.52;94.08
28606;BME280;46498;49.968;7.754;2023-02-19T13:53:57;97802.00;;;9.36;96.58
28606;BME280;46498;49.968;7.754;2023-02-19T13:59:21;97813.00;;;9.23;100.00
28606;BME280;46498;49.968;7.754;2023-02-19T14:05:08;97820.00;;;9.16;100.00
28606;BME280;46498;49.968;7.754;2023-02-19T14:10:12;97820.00;;;9.04;98.39
28606;BME280;46498;49.968;7.754;2023-02-19T14:16:31;97814.00;;;9.18;98.47
28606;BME280;46498;49.968;7.754;2023-02-19T14:21:36;97824.00;;;9.21;100.00
28606;BME280;46498;49.968;7.754;2023-02-19T14:26:38;97835.00;;;9.28;100.00
28606;BME280;46498;49.968;7.754;2023-02-19T14:31:43;97833.00;;;9.09;100.00
28606;BME280;46498;49.968;7.754;2023-02-19T14:36:52;97830.00;;;9.04;100.00
28606;BME280;46498;49.968;7.754;2023-02-19T14:42:00;97833.00;;;9.03;100.00
28606;BME280;46498;49.968;7.754;2023-02-19T14:47:22;97837.00;;;9.12;97.80
28606;BME280;46498;49.968;7.754;2023-02-19T14:52:42;97848.00;;;9.21;97.53
28606;BME280;46498;49.968;7.754;2023-02-19T14:57:47;97865.00;;;8.97;99.13
28606;BME280;46498;49.968;7.754;2023-02-19T15:02:51;97871.00;;;8.81;100.00
28606;BME280;46498;49.968;7.754;2023-02-19T15:07:59;97874.00;;;8.89;100.00
28606;BME280;46498;49.968;7.754;2023-02-19T15:13:07;97875.00;;;8.80;99.59
28606;BME280;46498;49.968;7.754;2023-02-19T15:18:20;97872.00;;;8.84;98.63
28606;BME280;46498;49.968;7.754;2023-02-19T15:23:23;97877.00;;;8.84;98.11
28606;BME280;46498;49.968;7.754;2023-02-19T15:28:31;97884.00;;;8.86;99.21
28606;BME280;46498;49.968;7.754;2023-02-19T15:33:32;97893.00;;;8.82;100.00
28606;BME280;46498;49.968;7.754;2023-02-19T15:38:33;97899.00;;;8.74;100.00
28606;BME280;46498;49.968;7.754;2023-02-19T15:43:43;97896.00;;;8.52;100.00
28606;BME280;46498;49.968;7.754;2023-02-19T15:48:59;97898.00;;;8.14;100.00
28606;BME280;46498;49.968;7.754;2023-02-19T15:54:11;97896.00;;;8.13;100.00
28606;BME280;46498;49.968;7.754;2023-02-19T15:59:29;97895.00;;;8.07;100.00
28606;BME280;46498;49.968;7.754;2023-02-19T16:04:33;97894.00;;;7.94;100.00
28606;BME280;46498;49.968;7.754;2023-02-19T16:09:36;97873.00;;;7.55;100.00
28606;BME280;46498;49.968;7.754;2023-02-19T16:14:37;97870.00;;;7.34;100.00
28606;BME280;46498;49.968;7.754;2023-02-19T16:19:55;97865.00;;;7.29;100.00
28606;BME280;46498;49.968;7.754;2023-02-19T16:24:59;97854.00;;;7.24;100.00
28606;BME280;46498;49.968;7.754;2023-02-19T16:30:28;97842.00;;;7.18;100.00
28606;BME280;46498;49.968;7.754;2023-02-19T16:35:38;97838.00;;;7.24;100.00
28606;BME280;46498;49.968;7.754;2023-02-19T16:41:15;97862.00;;;7.20;100.00
28606;BME280;46498;49.968;7.754;2023-02-19T16:46:16;97867.00;;;7.25;100.00
28606;BME280;46498;49.968;7.754;2023-02-19T16:51:23;97866.00;;;7.33;100.00
28606;BME280;46498;49.968;7.754;2023-02-19T16:56:24;97872.00;;;7.28;100.00
28606;BME280;46498;49.968;7.754;2023-02-19T17:01:25;97882.00;;;7.28;100.00
28606;BME280;46498;49.968;7.754;2023-02-19T17:06:26;97884.00;;;7.10;100.00
28606;BME280;46498;49.968;7.754;2023-02-19T17:11:27;97887.00;;;7.09;100.00
28606;BME280;46498;49.968;7.754;2023-02-19T17:16:30;97894.00;;;6.97;100.00
28606;BME280;46498;49.968;7.754;2023-02-19T17:21:39;97908.00;;;6.94;100.00
28606;BME280;46498;49.968;7.754;2023-02-19T17:26:39;97906.00;;;6.95;100.00
28606;BME280;46498;49.968;7.754;2023-02-19T17:31:40;97911.00;;;6.93;100.00
28606;BME280;46498;49.968;7.754;2023-02-19T17:36:42;97928.00;;;6.88;100.00
28606;BME280;46498;49.968;7.754;2023-02-19T17:41:45;97942.00;;;6.85;100.00
28606;BME280;46498;49.968;7.754;2023-02-19T17:46:46;97942.00;;;6.87;100.00
28606;BME280;46498;49.968;7.754;2023-02-19T17:51:47;97947.00;;;6.88;100.00
28606;BME280;46498;49.968;7.754;2023-02-19T17:56:48;97953.00;;;6.92;100.00
28606;BME280;46498;49.968;7.754;2023-02-19T18:01:49;97974.00;;;6.97;100.00
28606;BME280;46498;49.968;7.754;2023-02-19T18:06:50;97983.00;;;6.99;100.00
28606;BME280;46498;49.968;7.754;2023-02-19T18:11:53;97991.00;;;6.97;100.00
28606;BME280;46498;49.968;7.754;2023-02-19T18:16:53;98002.00;;;7.10;100.00
28606;BME280;46498;49.968;7.754;2023-02-19T18:21:54;98007.00;;;7.00;100.00
28606;BME280;46498;49.968;7.754;2023-02-19T18:26:55;98005.00;;;7.06;100.00
28606;BME280;46498;49.968;7.754;2023-02-19T18:31:56;98013.00;;;7.04;100.00
28606;BME280;46498;49.968;7.754;2023-02-19T18:36:57;98023.00;;;7.08;100.00
28606;BME280;46498;49.968;7.754;2023-02-19T18:41:58;98029.00;;;7.08;100.00
28606;BME280;46498;49.968;7.754;2023-02-19T18:47:00;98017.00;;;7.07;100.00
28606;BME280;46498;49.968;7.754;2023-02-19T18:52:01;98009.00;;;7.09;100.00
28606;BME280;46498;49.968;7.754;2023-02-19T18:57:01;98014.00;;;6.98;100.00
28606;BME280;46498;49.968;7.754;2023-02-19T19:02:04;98016.00;;;6.99;100.00
28606;BME280;46498;49.968;7.754;2023-02-19T19:07:08;98012.00;;;6.97;100.00
28606;BME280;46498;49.968;7.754;2023-02-19T19:12:10;98014.00;;;6.98;100.00
28606;BME280;46498;49.968;7.754;2023-02-19T19:17:11;98000.00;;;6.96;100.00
28606;BME280;46498;49.968;7.754;2023-02-19T19:22:11;98006.00;;;6.91;100.00
28606;BME280;46498;49.968;7.754;2023-02-19T19:27:13;98000.00;;;6.89;100.00
28606;BME280;46498;49.968;7.754;2023-02-19T19:32:14;98012.00;;;6.90;100.00
28606;BME280;46498;49.968;7.754;2023-02-19T19:37:15;98008.00;;;6.93;100.00
28606;BME280;46498;49.968;7.754;2023-02-19T19:42:16;97999.00;;;6.89;100.00
28606;BME280;46498;49.968;7.754;2023-02-19T19:47:18;98002.00;;;6.84;100.00
28606;BME280;46498;49.968;7.754;2023-02-19T19:52:19;98007.00;;;6.90;100.00
28606;BME280;46498;49.968;7.754;2023-02-19T19:57:19;97999.00;;;6.90;100.00
28606;BME280;46498;49.968;7.754;2023-02-19T20:02:20;98013.00;;;6.92;100.00
28606;BME280;46498;49.968;7.754;2023-02-19T20:07:23;98025.00;;;6.83;100.00
28606;BME280;46498;49.968;7.754;2023-02-19T20:12:24;98027.00;;;6.87;100.00
28606;BME280;46498;49.968;7.754;2023-02-19T20:17:24;98033.00;;;6.83;100.00
28606;BME280;46498;49.968;7.754;2023-02-19T20:22:28;98043.00;;;6.84;100.00
28606;BME280;46498;49.968;7.754;2023-02-19T20:27:29;98038.00;;;6.81;100.00
28606;BME280;46498;49.968;7.754;2023-02-19T20:32:30;98032.00;;;6.82;100.00
28606;BME280;46498;49.968;7.754;2023-02-19T20:37:31;98028.00;;;6.80;100.00
28606;BME280;46498;49.968;7.754;2023-02-19T20:42:31;98045.00;;;6.84;100.00
28606;BME280;46498;49.968;7.754;2023-02-19T20:47:32;98042.00;;;6.94;100.00
28606;BME280;46498;49.968;7.754;2023-02-19T20:52:33;98043.00;;;6.91;100.00
28606;BME280;46498;49.968;7.754;2023-02-19T20:57:34;98044.00;;;6.88;100.00
28606;BME280;46498;49.968;7.754;2023-02-19T21:02:35;98045.00;;;6.83;100.00
28606;BME280;46498;49.968;7.754;2023-02-19T21:07:36;98049.00;;;6.83;100.00
28606;BME280;46498;49.968;7.754;2023-02-19T21:12:37;98051.00;;;6.75;100.00
28606;BME280;46498;49.968;7.754;2023-02-19T21:17:38;98053.00;;;6.71;100.00
28606;BME280;46498;49.968;7.754;2023-02-19T21:22:38;98069.00;;;6.63;100.00
28606;BME280;46498;49.968;7.754;2023-02-19T21:27:39;98070.00;;;6.66;100.00
28606;BME280;46498;49.968;7.754;2023-02-19T21:32:40;98079.00;;;6.67;100.00
28606;BME280;46498;49.968;7.754;2023-02-19T21:37:42;98082.00;;;6.66;100.00
28606;BME280;46498;49.968;7.754;2023-02-19T21:42:44;98087.00;;;6.53;100.00
28606;BME280;46498;49.968;7.754;2023-02-19T21:47:44;98089.00;;;6.42;100.00
28606;BME280;46498;49.968;7.754;2023-02-19T21:52:46;98090.00;;;6.43;100.00
28606;BME280;46498;49.968;7.754;2023-02-19T21:57:47;98091.00;;;6.42;100.00
28606;BME280;46498;49.968;7.754;2023-02-19T22:02:48;98080.00;;;6.37;100.00
28606;BME280;46498;49.968;7.754;2023-02-19T22:07:49;98072.00;;;6.23;100.00
28606;BME280;46498;49.968;7.754;2023-02-19T22:12:52;98081.00;;;6.27;100.00
28606;BME280;46498;49.968;7.754;2023-02-19T22:17:53;98094.00;;;6.17;100.00
28606;BME280;46498;49.968;7.754;2023-02-19T22:22:54;98091.00;;;6.20;100.00
28606;BME280;46498;49.968;7.754;2023-02-19T22:27:54;98098.00;;;6.21;100.00
28606;BME280;46498;49.968;7.754;2023-02-19T22:32:55;98114.00;;;6.14;100.00
28606;BME280;46498;49.968;7.754;2023-02-19T22:37:56;98121.00;;;6.18;100.00
28606;BME280;46498;49.968;7.754;2023-02-19T22:42:57;98124.00;;;5.99;100.00
28606;BME280;46498;49.968;7.754;2023-02-19T22:47:58;98113.00;;;5.93;100.00
28606;BME280;46498;49.968;7.754;2023-02-19T22:52:58;98105.00;;;6.01;100.00
28606;BME280;46498;49.968;7.754;2023-02-19T22:57:59;98116.00;;;5.95;100.00
28606;BME280;46498;49.968;7.754;2023-02-19T23:03:01;98105.00;;;5.72;100.00
28606;BME280;46498;49.968;7.754;2023-02-19T23:08:01;98104.00;;;5.68;100.00
28606;BME280;46498;49.968;7.754;2023-02-19T23:13:03;98108.00;;;5.70;100.00
28606;BME280;46498;49.968;7.754;2023-02-19T23:18:03;98093.00;;;5.58;100.00
28606;BME280;46498;49.968;7.754;2023-02-19T23:23:05;98097.00;;;5.62;100.00
28606;BME280;46498;49.968;7.754;2023-02-19T23:28:06;98111.00;;;5.47;100.00
28606;BME280;46498;49.968;7.754;2023-02-19T23:33:07;98115.00;;;5.32;100.00
28606;BME280;46498;49.968;7.754;2023-02-19T23:38:08;98124.00;;;5.29;100.00
28606;BME280;46498;49.968;7.754;2023-02-19T23:43:09;98119.00;;;5.25;100.00
28606;BME280;46498;49.968;7.754;2023-02-19T23:48:10;98123.00;;;5.41;100.00
28606;BME280;46498;49.968;7.754;2023-02-19T23:53:10;98131.00;;;5.44;100.00
28606;BME280;46498;49.968;7.754;2023-02-19T23:58:11;98119.00;;;5.42;100.00
